createdAt,value
2019-05-10T00:04:00.156Z,7.56
2019-05-10T00:09:06.111Z,7.67
2019-05-10T00:14:32.159Z,7.89
2019-05-10T00:19:37.545Z,7.74
2019-05-10T00:25:02.270Z,8.03
2019-05-10T00:29:56.731Z,8.05
2019-05-10T00:35:03.792Z,7.98
2019-05-10T00:40:09.430Z,7.82
2019-05-10T00:45:15.162Z,7.78
2019-05-10T00:50:22.203Z,7.56
2019-05-10T00:55:28.470Z,7.44
2019-05-10T01:00:34.144Z,7.23
2019-05-10T01:05:40.649Z,7.22
2019-05-10T01:10:45.910Z,7.44
2019-05-10T01:15:51.911Z,7.69
2019-05-10T01:20:58.651Z,7.86
2019-05-10T01:26:04.710Z,8.00
2019-05-10T01:31:12.610Z,7.91
2019-05-10T01:36:18.382Z,7.72
2019-05-10T01:41:24.942Z,7.58
2019-05-10T01:46:35.786Z,7.57
2019-05-10T01:51:41.217Z,7.14
2019-05-10T01:56:47.766Z,7.03
2019-05-10T02:01:53.958Z,7.10
2019-05-10T02:06:59.751Z,7.38
2019-05-10T02:12:05.585Z,7.79
2019-05-10T02:17:11.605Z,8.07
2019-05-10T02:22:17.410Z,8.26
2019-05-10T02:27:23.464Z,8.43
2019-05-10T02:32:31.885Z,8.49
2019-05-10T02:37:37.394Z,8.52
2019-05-10T02:42:43.492Z,8.49
2019-05-10T02:47:49.452Z,8.41
2019-05-10T02:53:01.826Z,8.35
2019-05-10T02:58:08.201Z,8.29
2019-05-10T03:03:19.124Z,8.17
2019-05-10T03:08:25.665Z,8.04
2019-05-10T03:13:31.726Z,7.86
2019-05-10T03:18:38.342Z,7.64
2019-05-10T03:23:44.549Z,7.58
2019-05-10T03:28:50.893Z,7.66
2019-05-10T03:33:58.060Z,7.83
2019-05-10T03:39:04.263Z,7.83
2019-05-10T03:44:11.215Z,7.63
2019-05-10T03:49:16.863Z,7.45
2019-05-10T03:54:22.624Z,7.35
2019-05-10T03:59:34.147Z,7.14
2019-05-10T04:04:40.119Z,7.05
2019-05-10T04:09:49.921Z,6.97
2019-05-10T04:14:56.389Z,6.83
2019-05-10T04:20:02.315Z,6.88
2019-05-10T04:25:09.077Z,6.77
2019-05-10T04:30:16.091Z,6.74
2019-05-10T04:35:21.819Z,6.74
2019-05-10T04:40:28.475Z,6.76
2019-05-10T04:45:35.347Z,6.68
2019-05-10T04:50:41.407Z,6.70
2019-05-10T04:55:47.976Z,6.58
2019-05-10T05:00:53.880Z,6.57
2019-05-10T05:05:59.607Z,6.69
2019-05-10T05:11:06.051Z,6.69
2019-05-10T05:16:12.886Z,6.90
2019-05-10T05:21:18.766Z,7.07
2019-05-10T05:26:24.466Z,7.13
2019-05-10T05:31:36.145Z,7.22
2019-05-10T05:36:41.789Z,7.43
2019-05-10T05:41:51.485Z,7.44
2019-05-10T05:46:55.601Z,7.53
2019-05-10T05:52:01.202Z,7.91
2019-05-10T05:57:10.658Z,8.95
2019-05-10T06:02:16.705Z,8.95
2019-05-10T06:07:22.345Z,9.38
2019-05-10T06:12:33.766Z,9.62
2019-05-10T06:17:40.170Z,9.77
2019-05-10T06:23:05.117Z,9.96
2019-05-10T06:27:56.549Z,9.87
2019-05-10T06:33:12.085Z,9.79
2019-05-10T06:38:09.957Z,10.34
2019-05-10T06:43:18.526Z,10.55
2019-05-10T06:48:27.481Z,10.82
2019-05-10T06:53:31.665Z,11.16
2019-05-10T06:58:38.490Z,11.10
2019-05-10T07:03:45.295Z,10.86
2019-05-10T07:08:51.613Z,10.74
2019-05-10T07:13:59.227Z,10.78
2019-05-10T07:19:09.332Z,10.86
2019-05-10T07:24:18.300Z,10.88
2019-05-10T07:29:30.237Z,11.12
2019-05-10T07:34:36.326Z,11.38
2019-05-10T07:39:42.190Z,11.74
2019-05-10T07:44:48.824Z,11.81
2019-05-10T07:49:56.609Z,11.76
2019-05-10T07:55:02.934Z,11.93
2019-05-10T08:00:09.691Z,11.97
2019-05-10T08:05:18.294Z,11.99
2019-05-10T08:10:29.942Z,12.16
2019-05-10T08:15:38.340Z,12.21
2019-05-10T08:20:53.606Z,12.06
2019-05-10T08:25:55.654Z,11.98
2019-05-10T08:31:02.583Z,11.96
2019-05-10T08:36:08.404Z,12.13
2019-05-10T08:41:18.144Z,12.30
2019-05-10T08:46:29.160Z,12.43
2019-05-10T08:51:34.519Z,12.58
2019-05-10T08:56:44.050Z,12.11
2019-05-10T09:01:50.812Z,11.99
2019-05-10T09:06:59.813Z,11.76
2019-05-10T09:12:09.079Z,11.79
2019-05-10T09:17:14.816Z,12.07
2019-05-10T09:22:25.943Z,12.41
2019-05-10T09:27:29.085Z,12.16
2019-05-10T09:32:39.803Z,12.14
2019-05-10T09:37:47.706Z,12.00
2019-05-10T09:42:52.922Z,11.98
2019-05-10T09:48:03.203Z,12.00
2019-05-10T09:53:12.556Z,11.63
2019-05-10T09:58:22.307Z,11.43
2019-05-10T10:03:29.906Z,12.06
2019-05-10T10:08:34.615Z,12.85
2019-05-10T10:13:44.003Z,12.92
2019-05-10T10:18:50.575Z,12.70
2019-05-10T10:24:00.459Z,12.81
2019-05-10T10:29:07.358Z,13.47
2019-05-10T10:34:13.331Z,14.61
2019-05-10T10:39:22.812Z,14.21
2019-05-10T10:44:27.378Z,14.14
2019-05-10T10:49:33.313Z,13.78
2019-05-10T10:54:39.889Z,14.43
2019-05-10T10:59:47.465Z,14.60
2019-05-10T11:04:53.634Z,14.07
2019-05-10T11:10:08.181Z,14.07
2019-05-10T11:15:07.858Z,14.57
2019-05-10T11:20:14.154Z,14.27
2019-05-10T11:25:21.271Z,15.57
2019-05-10T11:30:26.863Z,15.70
2019-05-10T11:35:34.644Z,14.49
2019-05-10T11:40:41.921Z,14.07
2019-05-10T11:45:51.452Z,13.98
2019-05-10T11:50:56.841Z,13.81
2019-05-10T11:56:07.894Z,14.64
2019-05-10T12:01:17.689Z,16.06
2019-05-10T12:06:17.938Z,15.68
2019-05-10T12:11:33.006Z,15.04
2019-05-10T12:16:33.416Z,15.05
2019-05-10T12:21:39.446Z,14.50
2019-05-10T12:27:13.169Z,14.33
2019-05-10T12:31:56.972Z,13.94
2019-05-10T12:37:08.073Z,13.41
2019-05-10T12:42:11.301Z,13.50
2019-05-10T12:47:21.392Z,13.46
2019-05-10T12:52:28.897Z,13.91
2019-05-10T12:57:35.625Z,15.06
2019-05-10T13:02:44.717Z,14.91
2019-05-10T13:07:49.595Z,14.83
2019-05-10T13:12:55.647Z,14.83
2019-05-10T13:18:02.145Z,14.45
2019-05-10T13:23:10.015Z,14.47
2019-05-10T13:28:15.974Z,14.81
2019-05-10T13:33:28.842Z,15.05
2019-05-10T13:38:29.825Z,14.78
2019-05-10T13:43:35.260Z,14.71
2019-05-10T13:48:42.009Z,15.45
2019-05-10T13:53:47.898Z,15.90
2019-05-10T13:58:55.157Z,15.83
2019-05-10T14:04:03.572Z,15.82
2019-05-10T14:09:09.472Z,15.22
2019-05-10T14:14:20.588Z,15.36
2019-05-10T14:19:27.048Z,15.55
2019-05-10T14:24:34.905Z,14.96
2019-05-10T14:29:40.298Z,14.70
2019-05-10T14:34:46.439Z,14.75
2019-05-10T14:39:52.051Z,14.53
2019-05-10T14:44:58.715Z,14.45
2019-05-10T14:50:04.099Z,14.25
2019-05-10T14:55:12.950Z,14.18
2019-05-10T15:00:18.619Z,14.13
2019-05-10T15:05:24.702Z,14.06
2019-05-10T15:10:33.158Z,14.02
2019-05-10T15:15:39.131Z,13.66
2019-05-10T15:20:45.582Z,13.20
2019-05-10T15:25:57.265Z,13.12
2019-05-10T15:30:58.750Z,13.14
2019-05-10T15:36:04.626Z,13.14
2019-05-10T15:41:10.234Z,12.95
2019-05-10T15:46:16.379Z,12.88
2019-05-10T15:51:35.191Z,12.80
2019-05-10T15:56:35.716Z,12.83
2019-05-10T16:01:40.836Z,12.98
2019-05-10T16:06:46.530Z,13.12
2019-05-10T16:12:02.444Z,13.06
2019-05-10T16:17:10.229Z,13.19
2019-05-10T16:22:13.862Z,13.29
2019-05-10T16:27:21.377Z,13.62
2019-05-10T16:32:29.250Z,13.71
2019-05-10T16:37:34.962Z,13.65
2019-05-10T16:42:40.810Z,13.63
2019-05-10T16:47:46.826Z,13.63
2019-05-10T16:52:58.968Z,13.73
2019-05-10T16:58:02.059Z,13.85
2019-05-10T17:03:13.012Z,13.77
2019-05-10T17:08:15.990Z,13.67
2019-05-10T17:13:22.259Z,13.59
2019-05-10T17:18:29.309Z,13.45
2019-05-10T17:23:35.204Z,13.44
2019-05-10T17:28:40.854Z,13.27
2019-05-10T17:33:49.329Z,13.09
2019-05-10T17:38:55.802Z,13.01
2019-05-10T17:44:01.177Z,12.96
2019-05-10T17:49:08.526Z,12.84
2019-05-10T17:54:14.344Z,12.84
2019-05-10T17:59:20.670Z,12.81
2019-05-10T18:04:26.555Z,12.88
2019-05-10T18:09:32.834Z,12.89
2019-05-10T18:14:39.138Z,12.89
2019-05-10T18:19:45.010Z,12.86
2019-05-10T18:24:50.436Z,12.90
2019-05-10T18:29:56.362Z,12.98
2019-05-10T18:35:13.612Z,13.00
2019-05-10T18:40:16.180Z,12.91
2019-05-10T18:45:23.320Z,12.99
2019-05-10T18:50:31.155Z,13.07
2019-05-10T18:55:36.668Z,13.13
2019-05-10T19:00:42.388Z,12.98
2019-05-10T19:05:51.417Z,12.91
2019-05-10T19:10:57.906Z,12.86
2019-05-10T19:16:04.239Z,13.04
2019-05-10T19:21:10.067Z,12.96
2019-05-10T19:26:17.540Z,12.83
2019-05-10T19:31:22.625Z,12.66
2019-05-10T19:36:28.203Z,12.40
2019-05-10T19:41:33.938Z,12.34
2019-05-10T19:46:40.750Z,12.10
2019-05-10T19:51:50.419Z,11.77
2019-05-10T19:56:55.449Z,11.39
2019-05-10T20:02:00.774Z,11.18
2019-05-10T20:07:06.266Z,11.20
2019-05-10T20:12:11.712Z,11.12
2019-05-10T20:17:17.458Z,11.26
2019-05-10T20:22:22.935Z,11.70
2019-05-10T20:27:28.386Z,11.83
2019-05-10T20:32:33.779Z,11.93
2019-05-10T20:37:39.314Z,12.14
2019-05-10T20:42:44.618Z,12.01
2019-05-10T20:47:50.004Z,11.87
2019-05-10T20:52:55.360Z,11.70
2019-05-10T20:58:00.818Z,11.68
2019-05-10T21:03:06.183Z,11.57
2019-05-10T21:08:16.809Z,11.37
2019-05-10T21:13:18.730Z,10.89
2019-05-10T21:18:24.128Z,10.63
2019-05-10T21:23:30.027Z,10.31
2019-05-10T21:28:35.370Z,10.16
2019-05-10T21:33:40.737Z,10.26
2019-05-10T21:38:46.165Z,10.38
2019-05-10T21:43:51.470Z,10.46
2019-05-10T21:48:56.975Z,10.37
2019-05-10T21:54:02.461Z,10.26
2019-05-10T21:59:07.850Z,10.07
2019-05-10T22:04:13.264Z,9.90
2019-05-10T22:09:18.587Z,9.81
2019-05-10T22:14:24.142Z,9.58
2019-05-10T22:19:30.555Z,9.43
2019-05-10T22:24:35.989Z,9.35
2019-05-10T22:29:41.385Z,9.22
2019-05-10T22:34:46.704Z,9.14
2019-05-10T22:39:51.929Z,9.31
2019-05-10T22:44:57.310Z,9.56
2019-05-10T22:50:02.685Z,9.88
2019-05-10T22:55:08.275Z,10.25
2019-05-10T23:00:14.266Z,10.40
2019-05-10T23:05:19.749Z,10.53
2019-05-10T23:10:25.165Z,10.73
2019-05-10T23:15:30.440Z,10.87
2019-05-10T23:20:35.781Z,10.98
2019-05-10T23:25:41.028Z,10.98
2019-05-10T23:30:46.434Z,11.08
2019-05-10T23:35:51.787Z,11.18
2019-05-10T23:40:57.084Z,11.07
2019-05-10T23:46:02.539Z,10.68
2019-05-10T23:51:07.935Z,10.86
2019-05-10T23:56:13.303Z,11.12
